Time;durP1;ratioP1;P1;durP2;ratioP2;P2;SDS_P1;SDS_P2;PMS_P1;PMS_P2;Temp;Humidity;BMP_temperature;BMP_pressure;BME280_temperature;BME280_humidity;BME280_pressure;Samples;Min_cycle;Max_cycle;Signal;HPM_P1;HPM_P2
2022/04/04 00:01:16;;;;;;;9.73;3.75;;;;;;;2.19;100.00;101504.41;4964648;28;20034;-72
2022/04/04 00:03:41;;;;;;;8.80;4.07;;;;;;;2.19;100.00;101494.59;4941424;28;20045;-72
2022/04/04 00:06:07;;;;;;;9.02;3.90;;;;;;;2.19;100.00;101491.94;4965300;28;20140;-72
2022/04/04 00:08:33;;;;;;;10.68;3.47;;;;;;;2.20;100.00;101490.13;4949337;28;20989;-72
2022/04/04 00:11:00;;;;;;;10.52;4.68;;;;;;;2.20;100.00;101480.31;4965447;28;20041;-72
2022/04/04 00:13:27;;;;;;;8.13;3.85;;;;;;;2.25;100.00;101474.59;4959952;28;20429;-72
2022/04/04 00:15:53;;;;;;;10.75;4.35;;;;;;;2.35;100.00;101468.28;4980530;28;20017;-72
2022/04/04 00:18:18;;;;;;;9.45;3.95;;;;;;;2.33;100.00;101458.75;4953119;28;20091;-72
2022/04/04 00:20:44;;;;;;;7.88;4.25;;;;;;;2.33;100.00;101453.44;4949685;28;20049;-71
2022/04/04 00:23:12;;;;;;;8.15;3.65;;;;;;;2.38;100.00;101453.84;4962250;28;20033;-72
2022/04/04 00:25:44;;;;;;;8.27;4.13;;;;;;;2.44;100.00;101445.28;4946693;28;20794;-71
2022/04/04 00:28:10;;;;;;;7.88;4.30;;;;;;;2.43;100.00;101438.31;4963299;28;20037;-71
2022/04/04 00:30:36;;;;;;;13.20;4.75;;;;;;;2.39;100.00;101431.59;4949007;28;20204;-72
2022/04/04 00:33:02;;;;;;;11.90;4.93;;;;;;;2.49;100.00;101420.91;4966032;28;20170;-72
2022/04/04 00:35:29;;;;;;;7.43;4.72;;;;;;;2.46;100.00;101418.53;4962985;28;20411;-72
2022/04/04 00:37:55;;;;;;;11.45;4.53;;;;;;;2.53;100.00;101423.16;4969685;28;20057;-72
2022/04/04 00:40:21;;;;;;;8.43;4.93;;;;;;;2.58;100.00;101412.91;4963762;28;20033;-72
2022/04/04 00:42:46;;;;;;;12.45;5.85;;;;;;;2.61;100.00;101409.94;4951873;28;20053;-72
2022/04/04 00:45:12;;;;;;;9.25;5.30;;;;;;;2.67;100.00;101402.34;4966115;28;20037;-72
2022/04/04 00:47:37;;;;;;;10.85;5.32;;;;;;;2.65;100.00;101402.50;4952675;28;20084;-72
2022/04/04 00:50:03;;;;;;;15.43;6.32;;;;;;;2.67;100.00;101392.56;4965778;28;20103;-72
2022/04/04 00:52:29;;;;;;;11.93;5.45;;;;;;;2.74;100.00;101387.47;4951323;28;21381;-72
2022/04/04 00:54:55;;;;;;;7.30;5.03;;;;;;;2.71;100.00;101382.47;4965953;28;20941;-72
2022/04/04 00:57:20;;;;;;;11.80;4.75;;;;;;;2.74;100.00;101382.16;4961692;28;20385;-72
2022/04/04 00:59:46;;;;;;;15.10;6.90;;;;;;;2.77;100.00;101371.22;4947936;28;20149;-72
2022/04/04 01:02:12;;;;;;;7.88;4.97;;;;;;;2.81;100.00;101361.97;4950178;28;20041;-72
2022/04/04 01:04:37;;;;;;;11.20;5.68;;;;;;;2.86;100.00;101359.69;4948024;28;20121;-72
2022/04/04 01:07:03;;;;;;;9.13;4.97;;;;;;;2.88;100.00;101347.09;4965676;28;20664;-72
2022/04/04 01:09:30;;;;;;;8.65;5.43;;;;;;;2.92;100.00;101335.16;4950869;28;20171;-72
2022/04/04 01:12:09;;;;;;;12.02;5.72;;;;;;;2.91;100.00;101336.09;4959521;28;20025;-72
2022/04/04 01:14:46;;;;;;;13.20;6.63;;;;;;;2.93;100.00;101312.84;4951253;28;20064;-72
2022/04/04 01:17:12;;;;;;;10.30;5.90;;;;;;;2.97;100.00;101324.88;4963900;28;20049;-72
2022/04/04 01:19:37;;;;;;;12.38;6.45;;;;;;;3.01;100.00;101315.59;4959721;28;20036;-71
2022/04/04 01:22:08;;;;;;;9.82;6.63;;;;;;;3.04;100.00;101312.63;4957418;28;20054;-72
2022/04/04 01:24:37;;;;;;;11.50;6.70;;;;;;;3.10;100.00;101297.88;4975229;28;20041;-72
2022/04/04 01:27:02;;;;;;;18.27;8.63;;;;;;;3.09;100.00;101291.72;4952659;28;20057;-72
2022/04/04 01:29:28;;;;;;;12.68;8.10;;;;;;;3.13;100.00;101286.09;4963507;28;20029;-72
2022/04/04 01:31:54;;;;;;;12.65;7.80;;;;;;;3.19;100.00;101293.44;4946749;28;20628;-74
2022/04/04 01:34:21;;;;;;;12.50;8.13;;;;;;;3.20;100.00;101282.66;4966044;28;20145;-74
2022/04/04 01:36:47;;;;;;;16.35;8.90;;;;;;;3.25;100.00;101279.53;4946038;28;20091;-72
2022/04/04 01:39:13;;;;;;;14.73;9.25;;;;;;;3.28;100.00;101276.56;4967308;28;20144;-72
2022/04/04 01:41:38;;;;;;;17.33;9.50;;;;;;;3.27;100.00;101262.41;4968130;28;22528;-72
2022/04/04 01:44:04;;;;;;;14.02;9.80;;;;;;;3.28;100.00;101263.25;4949840;28;23228;-72
2022/04/04 01:46:29;;;;;;;15.02;8.52;;;;;;;3.32;100.00;101251.28;4963221;28;20069;-72
2022/04/04 01:49:00;;;;;;;19.25;9.43;;;;;;;3.29;100.00;101236.47;4949251;28;20054;-72
2022/04/04 01:51:26;;;;;;;17.05;9.45;;;;;;;3.28;100.00;101240.13;4964517;28;20041;-72
2022/04/04 01:53:52;;;;;;;19.45;10.50;;;;;;;3.34;100.00;101228.03;4937375;28;20064;-72
2022/04/04 01:56:18;;;;;;;22.30;11.57;;;;;;;3.38;100.00;101194.75;4952939;28;20061;-72
2022/04/04 01:58:44;;;;;;;15.65;10.57;;;;;;;3.41;100.00;101220.25;4956556;28;23584;-72
2022/04/04 02:01:11;;;;;;;21.90;12.88;;;;;;;3.36;100.00;101196.72;4965584;28;20164;-72
2022/04/04 02:03:37;;;;;;;16.30;10.45;;;;;;;3.35;100.00;101201.22;4954489;28;20156;-72
2022/04/04 02:06:03;;;;;;;16.27;11.27;;;;;;;3.32;100.00;101184.72;4953633;28;24339;-72
2022/04/04 02:08:29;;;;;;;19.42;12.70;;;;;;;3.32;100.00;101195.38;4980460;28;23061;-72
2022/04/04 02:10:55;;;;;;;17.92;12.82;;;;;;;3.33;100.00;101175.72;4940269;28;20658;-73
2022/04/04 02:13:23;;;;;;;21.17;12.45;;;;;;;3.38;100.00;101178.78;4971745;28;20047;-73
2022/04/04 02:15:52;;;;;;;23.98;12.32;;;;;;;3.40;100.00;101152.81;4954095;28;20053;-73
2022/04/04 02:18:18;;;;;;;20.45;11.50;;;;;;;3.45;100.00;101158.50;4955678;28;20046;-73
2022/04/04 02:20:44;;;;;;;22.75;12.95;;;;;;;3.43;100.00;101154.31;4949134;28;20152;-73
2022/04/04 02:23:10;;;;;;;16.80;12.27;;;;;;;3.43;100.00;101160.47;4966478;28;20025;-73
2022/04/04 02:25:35;;;;;;;23.00;14.73;;;;;;;3.48;100.00;101131.56;4965044;28;20045;-73
2022/04/04 02:28:01;;;;;;;19.88;12.95;;;;;;;3.50;100.00;101123.41;4953373;28;20064;-73
2022/04/04 02:30:26;;;;;;;23.77;13.50;;;;;;;3.48;100.00;101130.72;4967063;28;23522;-73
2022/04/04 02:32:52;;;;;;;20.83;13.77;;;;;;;3.50;100.00;101134.88;4951378;28;20737;-73
2022/04/04 02:35:18;;;;;;;22.30;13.60;;;;;;;3.48;100.00;101118.25;4966238;28;22466;-73
2022/04/04 02:37:44;;;;;;;18.35;12.82;;;;;;;3.46;100.00;101112.22;4954703;28;20061;-73
2022/04/04 02:40:10;;;;;;;19.02;12.55;;;;;;;3.50;100.00;101110.91;4968223;28;20053;-73
2022/04/04 02:42:35;;;;;;;19.08;12.95;;;;;;;3.49;100.00;101095.94;4967487;28;20146;-73
2022/04/04 02:45:01;;;;;;;18.17;12.18;;;;;;;3.53;100.00;101096.44;4952250;28;20056;-73
2022/04/04 02:47:26;;;;;;;26.45;15.57;;;;;;;3.56;100.00;101083.66;4968436;28;21220;-73
2022/04/04 02:49:52;;;;;;;21.75;14.00;;;;;;;3.55;100.00;101081.97;4954152;28;20783;-73
2022/04/04 02:52:17;;;;;;;24.02;15.57;;;;;;;3.56;100.00;101065.00;4969590;28;20061;-73
2022/04/04 02:54:43;;;;;;;25.58;14.27;;;;;;;3.62;100.00;101068.03;4953151;28;20049;-73
2022/04/04 02:57:08;;;;;;;24.30;14.88;;;;;;;3.63;100.00;101053.69;4967097;28;20036;-73
2022/04/04 02:59:34;;;;;;;28.40;15.18;;;;;;;3.61;100.00;101051.19;4951421;28;20482;-73
2022/04/04 03:01:59;;;;;;;27.83;14.35;;;;;;;3.65;100.00;101019.72;4967944;28;20124;-74
2022/04/04 03:04:25;;;;;;;23.90;14.90;;;;;;;3.68;100.00;101035.38;4968395;28;20053;-73
2022/04/04 03:06:50;;;;;;;19.30;14.15;;;;;;;3.72;100.00;101026.94;4951654;28;20906;-74
2022/04/04 03:09:16;;;;;;;27.20;15.57;;;;;;;3.74;100.00;101000.94;4966253;28;20034;-73
2022/04/04 03:11:41;;;;;;;29.70;14.65;;;;;;;3.79;100.00;101019.94;4951285;28;20103;-73
2022/04/04 03:14:06;;;;;;;23.75;15.23;;;;;;;3.81;100.00;101009.94;4963841;28;20033;-73
2022/04/04 03:16:32;;;;;;;24.35;15.23;;;;;;;3.87;100.00;101008.47;4948682;28;20914;-73
2022/04/04 03:18:59;;;;;;;24.63;15.05;;;;;;;3.85;100.00;100994.44;4966353;28;20029;-74
2022/04/04 03:21:29;;;;;;;23.00;13.27;;;;;;;3.93;100.00;100981.16;4946482;28;20086;-74
2022/04/04 03:23:54;;;;;;;23.27;14.77;;;;;;;3.95;100.00;100995.13;4940511;28;20088;-74
2022/04/04 03:26:20;;;;;;;24.35;15.32;;;;;;;3.98;100.00;100978.81;4968064;28;20053;-73
2022/04/04 03:28:46;;;;;;;23.80;14.82;;;;;;;4.07;100.00;100983.16;4950301;28;20084;-73
2022/04/04 03:31:13;;;;;;;26.83;15.10;;;;;;;4.04;100.00;100988.81;4964628;28;20033;-73
2022/04/04 03:33:38;;;;;;;24.20;15.10;;;;;;;4.14;100.00;100974.47;4950020;28;20064;-73
2022/04/04 03:36:04;;;;;;;24.48;14.50;;;;;;;4.20;100.00;100971.13;4953359;28;20033;-73
2022/04/04 03:38:30;;;;;;;25.80;14.75;;;;;;;4.23;100.00;100954.78;4958482;28;20129;-73
2022/04/04 03:40:55;;;;;;;33.30;15.95;;;;;;;4.26;100.00;100949.97;4964617;28;20113;-73
2022/04/04 03:43:22;;;;;;;24.23;15.73;;;;;;;4.29;100.00;100943.47;4963561;28;20030;-73
2022/04/04 03:45:47;;;;;;;25.38;16.52;;;;;;;4.32;100.00;100937.78;4950996;28;20049;-73
2022/04/04 03:48:13;;;;;;;30.33;16.42;;;;;;;4.33;100.00;100931.44;4965091;28;22542;-73
2022/04/04 03:50:39;;;;;;;25.95;16.15;;;;;;;4.34;100.00;100929.63;4952607;28;20050;-73
2022/04/04 03:53:05;;;;;;;23.85;16.23;;;;;;;4.34;100.00;100919.78;4964354;28;20069;-73
2022/04/04 03:55:34;;;;;;;24.77;16.42;;;;;;;4.32;100.00;100913.78;4936256;28;20120;-73
2022/04/04 03:58:00;;;;;;;31.25;16.35;;;;;;;4.35;100.00;100894.75;4967589;28;20067;-73
2022/04/04 04:00:26;;;;;;;25.45;15.00;;;;;;;4.31;100.00;100893.44;4950177;28;20752;-73
2022/04/04 04:02:53;;;;;;;27.15;16.75;;;;;;;4.27;100.00;100876.13;4969022;28;20026;-73
2022/04/04 04:05:19;;;;;;;24.52;16.05;;;;;;;4.29;100.00;100876.78;4968092;28;20060;-72
2022/04/04 04:07:44;;;;;;;31.42;17.10;;;;;;;4.27;100.00;100862.78;4948561;28;20486;-73
2022/04/04 04:10:11;;;;;;;33.40;16.55;;;;;;;4.24;100.00;100863.94;4967465;28;20046;-73
2022/04/04 04:12:40;;;;;;;29.27;16.92;;;;;;;4.19;100.00;100836.16;4951259;28;20050;-72
2022/04/04 04:15:10;;;;;;;23.52;17.63;;;;;;;4.17;100.00;100849.66;4976542;28;22757;-73
2022/04/04 04:17:36;;;;;;;27.20;18.10;;;;;;;4.12;100.00;100837.84;4946850;28;20060;-72
2022/04/04 04:20:20;;;;;;;35.35;18.27;;;;;;;4.14;100.00;100838.50;4962136;28;20025;-72
2022/04/04 04:22:57;;;;;;;29.83;18.45;;;;;;;4.06;100.00;100821.53;4937190;28;20172;-72
2022/04/04 04:25:24;;;;;;;29.77;18.23;;;;;;;4.10;100.00;100807.84;4960288;28;20035;-74
2022/04/04 04:27:50;;;;;;;35.33;18.50;;;;;;;4.07;100.00;100811.69;4954263;28;22581;-73
2022/04/04 04:30:16;;;;;;;34.03;19.50;;;;;;;4.08;100.00;100810.69;4958244;28;20500;-73
2022/04/04 04:32:48;;;;;;;31.20;19.90;;;;;;;4.05;100.00;100803.03;4951614;28;20061;-73
2022/04/04 04:35:15;;;;;;;31.92;18.73;;;;;;;4.03;100.00;100795.19;4948425;28;20163;-73
2022/04/04 04:37:41;;;;;;;28.77;18.15;;;;;;;3.99;100.00;100777.88;4950370;28;23532;-73
2022/04/04 04:40:08;;;;;;;31.38;20.30;;;;;;;3.97;100.00;100779.91;4949845;28;20506;-73
2022/04/04 04:42:34;;;;;;;29.42;18.52;;;;;;;4.00;100.00;100763.59;4965074;28;20052;-72
2022/04/04 04:45:01;;;;;;;31.90;19.27;;;;;;;4.01;100.00;100759.91;4948181;28;20077;-72
2022/04/04 04:47:27;;;;;;;39.10;19.02;;;;;;;4.02;100.00;100758.91;4965510;28;20670;-72
2022/04/04 04:49:52;;;;;;;27.85;20.05;;;;;;;3.98;100.00;100749.59;4961429;28;20042;-72
2022/04/04 04:52:18;;;;;;;37.53;20.30;;;;;;;3.97;100.00;100757.78;4953547;28;20058;-72
2022/04/04 04:54:44;;;;;;;41.42;19.52;;;;;;;4.00;100.00;100747.59;4964022;28;20048;-72
2022/04/04 04:57:09;;;;;;;29.85;18.15;;;;;;;4.00;100.00;100736.06;4945707;28;20485;-71
2022/04/04 04:59:35;;;;;;;33.58;19.55;;;;;;;4.02;100.00;100740.22;4964526;28;20646;-71
2022/04/04 05:02:00;;;;;;;29.98;18.83;;;;;;;3.99;100.00;100732.59;4945711;28;20058;-71
2022/04/04 05:04:26;;;;;;;31.92;20.45;;;;;;;3.95;100.00;100717.94;4969128;28;20038;-71
2022/04/04 05:06:51;;;;;;;30.08;18.80;;;;;;;3.92;100.00;100707.63;4931698;28;22561;-71
2022/04/04 05:09:19;;;;;;;28.92;18.58;;;;;;;3.89;100.00;100691.97;4964968;28;22632;-71
2022/04/04 05:11:45;;;;;;;33.58;19.85;;;;;;;3.89;100.00;100685.81;4963417;28;20285;-70
2022/04/04 05:14:15;;;;;;;27.00;18.50;;;;;;;3.91;100.00;100689.16;4954739;28;20054;-70
2022/04/04 05:16:44;;;;;;;38.85;21.75;;;;;;;3.93;100.00;100685.31;4975052;28;20033;-72
2022/04/04 05:19:13;;;;;;;27.45;19.35;;;;;;;3.91;100.00;100668.66;4959611;28;20096;-72
2022/04/04 05:21:40;;;;;;;29.10;20.60;;;;;;;3.91;100.00;100663.34;4963777;28;20060;-72
2022/04/04 05:24:07;;;;;;;28.73;20.45;;;;;;;3.90;100.00;100676.84;4936395;28;20049;-72
2022/04/04 05:26:32;;;;;;;32.05;19.45;;;;;;;3.89;100.00;100660.00;4964290;28;20080;-72
2022/04/04 05:28:58;;;;;;;35.38;21.08;;;;;;;3.86;100.00;100665.69;4950375;28;27181;-73
2022/04/04 05:31:24;;;;;;;35.28;20.58;;;;;;;3.88;100.00;100657.53;4971664;28;20037;-73
2022/04/04 05:33:50;;;;;;;36.42;21.65;;;;;;;3.83;100.00;100650.06;4966514;28;20034;-74
2022/04/04 05:36:16;;;;;;;30.73;19.52;;;;;;;3.81;100.00;100644.88;4947114;28;20120;-73
2022/04/04 05:38:41;;;;;;;35.60;21.77;;;;;;;3.83;100.00;100642.06;4964955;28;20671;-73
2022/04/04 05:41:07;;;;;;;34.85;20.88;;;;;;;3.82;100.00;100643.03;4951659;28;20113;-73
2022/04/04 05:43:32;;;;;;;36.15;22.05;;;;;;;3.84;100.00;100630.38;4964877;28;21175;-73
2022/04/04 05:45:58;;;;;;;35.47;22.20;;;;;;;3.82;100.00;100632.38;4932640;28;20053;-73
2022/04/04 05:48:25;;;;;;;31.55;20.88;;;;;;;3.79;100.00;100627.41;4967158;28;20080;-74
2022/04/04 05:50:51;;;;;;;36.20;21.60;;;;;;;3.83;100.00;100620.75;4950176;28;20038;-73
2022/04/04 05:53:17;;;;;;;42.40;23.58;;;;;;;3.81;100.00;100620.06;4955697;28;20125;-73
2022/04/04 05:55:42;;;;;;;33.00;20.73;;;;;;;3.83;100.00;100620.75;4964661;28;20069;-73
2022/04/04 05:58:07;;;;;;;42.47;23.33;;;;;;;3.84;100.00;100619.72;4952131;28;21481;-73
2022/04/04 06:00:33;;;;;;;37.55;20.70;;;;;;;3.88;100.00;100614.88;4971791;28;20755;-74
2022/04/04 06:02:58;;;;;;;34.30;21.88;;;;;;;3.87;100.00;100606.06;4954466;28;21134;-73
2022/04/04 06:05:24;;;;;;;32.63;20.00;;;;;;;3.91;100.00;100615.38;4964440;28;22276;-74
2022/04/04 06:07:49;;;;;;;34.38;21.60;;;;;;;3.90;100.00;100618.22;4949514;28;21183;-74
2022/04/04 06:10:16;;;;;;;37.22;22.13;;;;;;;3.84;100.00;100601.09;4970403;28;21283;-74
2022/04/04 06:12:43;;;;;;;38.47;22.77;;;;;;;3.89;100.00;100601.38;4935058;28;20077;-74
2022/04/04 06:15:10;;;;;;;38.22;21.63;;;;;;;3.86;100.00;100593.75;4951544;28;20085;-74
2022/04/04 06:17:36;;;;;;;34.85;18.55;;;;;;;3.91;100.00;100609.22;4966749;28;20099;-74
2022/04/04 06:20:03;;;;;;;22.80;13.77;;;;;;;3.86;100.00;100580.44;4966045;28;20053;-73
2022/04/04 06:22:34;;;;;;;26.55;14.30;;;;;;;3.95;100.00;100589.19;4970327;28;20205;-73
2022/04/04 06:24:59;;;;;;;22.20;13.23;;;;;;;3.92;100.00;100578.88;4953199;28;20059;-73
2022/04/04 06:27:25;;;;;;;24.25;12.13;;;;;;;3.92;100.00;100573.56;4966442;28;20060;-73
2022/04/04 06:29:50;;;;;;;21.70;10.70;;;;;;;3.95;100.00;100562.53;4952078;28;20084;-74
2022/04/04 06:32:15;;;;;;;15.85;9.50;;;;;;;3.97;100.00;100566.69;4966671;28;20038;-73
2022/04/04 06:34:41;;;;;;;15.35;9.68;;;;;;;3.95;100.00;100560.69;4967820;28;20128;-73
2022/04/04 06:37:09;;;;;;;14.18;8.43;;;;;;;3.96;100.00;100565.03;4950668;28;22632;-73
2022/04/04 06:39:35;;;;;;;16.75;8.35;;;;;;;3.92;100.00;100536.25;4954316;28;20136;-73
2022/04/04 06:42:02;;;;;;;19.73;7.70;;;;;;;3.94;100.00;100544.91;4948810;28;20558;-74
2022/04/04 06:44:28;;;;;;;18.38;7.65;;;;;;;3.89;100.00;100548.06;4984486;28;20033;-73
2022/04/04 06:46:53;;;;;;;14.43;7.35;;;;;;;3.84;100.00;100531.81;4952994;28;20058;-74
2022/04/04 06:49:19;;;;;;;12.45;7.38;;;;;;;3.82;100.00;100523.16;4964303;28;20033;-73
2022/04/04 06:51:47;;;;;;;13.45;8.25;;;;;;;3.87;100.00;100531.44;4946194;28;20730;-73
2022/04/04 06:54:13;;;;;;;14.18;7.10;;;;;;;3.87;100.00;100523.47;4945771;28;20034;-73
2022/04/04 06:56:38;;;;;;;15.10;7.35;;;;;;;3.85;100.00;100498.81;4959144;28;20033;-73
2022/04/04 06:59:04;;;;;;;15.43;8.93;;;;;;;3.89;100.00;100516.09;4947781;28;20054;-74
2022/04/04 07:01:31;;;;;;;15.70;9.95;;;;;;;3.88;100.00;100476.31;4964510;28;23424;-73
2022/04/04 07:03:58;;;;;;;27.10;10.25;;;;;;;3.88;100.00;100487.81;4946155;28;20060;-73
2022/04/04 07:06:25;;;;;;;16.30;9.05;;;;;;;3.91;100.00;100487.44;4967752;28;20029;-80
2022/04/04 07:08:51;;;;;;;16.05;10.73;;;;;;;3.95;100.00;100480.75;4965765;28;20081;-80
2022/04/04 07:11:16;;;;;;;20.38;10.32;;;;;;;3.96;100.00;100453.09;4977485;28;20034;-80
2022/04/04 07:13:43;;;;;;;20.30;10.13;;;;;;;3.94;100.00;100465.78;4975012;28;20036;-81
2022/04/04 07:16:09;;;;;;;17.05;10.68;;;;;;;3.96;100.00;100455.75;4964322;28;20740;-79
2022/04/04 07:18:34;;;;;;;16.48;11.05;;;;;;;3.98;100.00;100447.59;4985530;28;20029;-79
2022/04/04 07:21:00;;;;;;;22.85;12.25;;;;;;;4.01;100.00;100434.75;4973643;28;20506;-78
2022/04/04 07:23:25;;;;;;;19.73;13.00;;;;;;;4.01;100.00;100441.91;4997334;28;20041;-78
2022/04/04 07:25:51;;;;;;;23.33;14.70;;;;;;;4.00;100.00;100409.09;4972831;28;20168;-78
2022/04/04 07:28:16;;;;;;;27.42;16.77;;;;;;;3.98;100.00;100435.09;4989004;28;20061;-79
2022/04/04 07:30:43;;;;;;;26.88;17.50;;;;;;;3.95;100.00;100430.13;4977481;28;20125;-79
2022/04/04 07:33:09;;;;;;;26.67;17.67;;;;;;;4.02;100.00;100425.72;4974009;28;20068;-79
2022/04/04 07:35:35;;;;;;;26.98;18.08;;;;;;;4.02;100.00;100417.72;4989703;28;20033;-79
2022/04/04 07:38:01;;;;;;;28.10;18.27;;;;;;;4.03;100.00;100426.56;4966067;28;20049;-79
2022/04/04 07:40:27;;;;;;;26.13;16.73;;;;;;;3.99;100.00;100387.94;4978901;28;20152;-79
2022/04/04 07:42:53;;;;;;;27.02;18.08;;;;;;;4.10;100.00;100424.00;4962436;28;20075;-79
2022/04/04 07:45:19;;;;;;;23.25;15.52;;;;;;;4.12;100.00;100408.66;4987051;28;20513;-79
2022/04/04 07:47:46;;;;;;;29.17;16.48;;;;;;;4.17;100.00;100385.75;4964988;28;20127;-79
2022/04/04 07:50:13;;;;;;;22.80;15.55;;;;;;;4.17;100.00;100385.75;4974080;28;20156;-79
2022/04/04 07:52:40;;;;;;;24.65;15.20;;;;;;;4.18;100.00;100381.28;4965424;28;20080;-77
2022/04/04 07:55:06;;;;;;;29.92;16.50;;;;;;;4.18;100.00;100375.94;4971251;28;20029;-80
2022/04/04 07:57:31;;;;;;;23.08;15.50;;;;;;;4.20;100.00;100376.59;4976027;28;20060;-80
2022/04/04 07:59:57;;;;;;;19.35;13.75;;;;;;;4.17;100.00;100371.59;4963913;28;20053;-82
2022/04/04 08:02:22;;;;;;;18.52;12.45;;;;;;;4.20;100.00;100365.91;4972231;28;20075;-82
2022/04/04 08:04:48;;;;;;;19.23;12.15;;;;;;;4.26;100.00;100362.53;4970257;28;20054;-82
2022/04/04 08:07:15;;;;;;;14.40;10.98;;;;;;;4.33;100.00;100358.13;4949254;28;20463;-82
2022/04/04 08:09:40;;;;;;;21.65;13.30;;;;;;;4.34;100.00;100365.09;4969140;28;20064;-83
2022/04/04 08:12:06;;;;;;;18.20;12.10;;;;;;;4.39;100.00;100351.19;4989382;28;20690;-82
2022/04/04 08:14:32;;;;;;;18.75;13.48;;;;;;;4.36;100.00;100339.09;4984930;28;20692;-83
2022/04/04 08:16:57;;;;;;;21.77;13.10;;;;;;;4.37;100.00;100343.41;4966729;28;20079;-82
2022/04/04 08:19:23;;;;;;;18.38;12.48;;;;;;;4.35;100.00;100345.41;4957744;28;20040;-83
2022/04/04 08:21:49;;;;;;;18.80;12.35;;;;;;;4.34;100.00;100327.75;4968085;28;20056;-81
2022/04/04 08:24:14;;;;;;;20.50;11.27;;;;;;;4.39;100.00;100320.06;4985702;28;20121;-82
2022/04/04 08:26:41;;;;;;;19.23;10.43;;;;;;;4.45;100.00;100324.63;4969065;28;20073;-82
2022/04/04 08:29:10;;;;;;;13.18;10.13;;;;;;;4.48;100.00;100308.25;4983380;28;20029;-82
2022/04/04 08:31:40;;;;;;;15.35;9.27;;;;;;;4.52;100.00;100306.84;4958127;28;20267;-81
2022/04/04 08:34:06;;;;;;;18.20;10.25;;;;;;;4.57;100.00;100300.16;4985483;28;21315;-81
2022/04/04 08:36:32;;;;;;;16.00;9.80;;;;;;;4.65;100.00;100297.38;5001696;28;20211;-81
2022/04/04 08:38:58;;;;;;;13.95;9.07;;;;;;;4.63;100.00;100312.72;4967668;28;20046;-81
2022/04/04 08:41:30;;;;;;;13.57;9.23;;;;;;;4.69;100.00;100301.31;4982494;28;20045;-81
2022/04/04 08:43:59;;;;;;;14.05;7.85;;;;;;;4.69;100.00;100270.13;4973283;28;20072;-82
2022/04/04 08:46:25;;;;;;;15.65;8.18;;;;;;;4.78;100.00;100290.34;4989783;28;20045;-81
2022/04/04 08:48:52;;;;;;;12.13;8.85;;;;;;;4.77;100.00;100282.53;4979525;28;20056;-82
2022/04/04 08:51:18;;;;;;;17.15;8.30;;;;;;;4.87;100.00;100296.38;4989449;28;20026;-82
2022/04/04 08:53:43;;;;;;;10.13;7.05;;;;;;;4.88;100.00;100292.72;4970867;28;20076;-82
2022/04/04 08:56:09;;;;;;;11.52;7.20;;;;;;;4.95;100.00;100268.75;4989164;28;20033;-81
2022/04/04 08:58:35;;;;;;;8.75;5.07;;;;;;;4.97;100.00;100262.22;4974242;28;20037;-82
2022/04/04 09:01:01;;;;;;;11.02;6.45;;;;;;;5.02;100.00;100251.81;4971268;28;20599;-83
2022/04/04 09:03:30;;;;;;;8.48;4.75;;;;;;;5.07;100.00;100258.41;4969987;28;20034;-82
2022/04/04 09:05:57;;;;;;;7.45;4.50;;;;;;;5.13;100.00;100263.00;4965905;28;20076;-82
2022/04/04 09:08:23;;;;;;;10.73;5.05;;;;;;;5.18;100.00;100255.22;4980363;28;20025;-81
2022/04/04 09:10:54;;;;;;;7.88;4.18;;;;;;;5.19;100.00;100251.50;4972348;28;20136;-84
2022/04/04 09:13:20;;;;;;;6.25;4.15;;;;;;;5.23;100.00;100242.94;4963234;28;20061;-80
2022/04/04 09:16:03;;;;;;;6.47;3.85;;;;;;;5.23;100.00;100242.94;4958603;28;20048;-81
2022/04/04 09:18:41;;;;;;;8.75;4.10;;;;;;;5.29;100.00;100240.50;4965050;28;20045;-82
2022/04/04 09:21:18;;;;;;;10.27;4.25;;;;;;;5.29;100.00;100213.81;4967087;28;20049;-80
2022/04/04 09:23:47;;;;;;;7.90;3.80;;;;;;;5.31;100.00;100223.28;4981074;28;20045;-82
2022/04/04 09:26:29;;;;;;;13.75;3.65;;;;;;;5.34;100.00;100209.56;4982793;28;20045;-80
2022/04/04 09:28:56;;;;;;;8.50;3.90;;;;;;;5.33;100.00;100226.56;4966373;28;20116;-81
2022/04/04 09:31:21;;;;;;;7.00;3.38;;;;;;;5.36;100.00;100223.50;4977833;28;20042;-81
2022/04/04 09:33:47;;;;;;;8.68;3.90;;;;;;;5.30;100.00;100194.94;4965501;28;20060;-82
2022/04/04 09:36:13;;;;;;;5.78;3.17;;;;;;;5.35;100.00;100207.69;4981374;28;20037;-81
2022/04/04 09:38:42;;;;;;;6.47;3.35;;;;;;;5.34;100.00;100193.53;4963694;28;21127;-83
2022/04/04 09:41:14;;;;;;;10.00;4.47;;;;;;;5.37;100.00;100201.16;4988172;28;20489;-83
2022/04/04 09:43:52;;;;;;;8.40;3.83;;;;;;;5.36;100.00;100188.78;4971870;28;20140;-84
2022/04/04 09:46:19;;;;;;;12.88;4.65;;;;;;;5.35;100.00;100164.97;4987662;28;20782;-82
2022/04/04 09:49:06;;;;;;;10.48;4.35;;;;;;;5.38;100.00;100199.31;4973563;28;20040;-83
2022/04/04 09:51:37;;;;;;;6.72;4.22;;;;;;;5.36;100.00;100183.47;4981960;28;20089;-82
2022/04/04 09:54:05;;;;;;;7.72;4.10;;;;;;;5.41;100.00;100174.88;4979517;28;20251;-81
2022/04/04 09:56:31;;;;;;;8.13;4.05;;;;;;;5.44;100.00;100164.63;4959056;28;20176;-83
2022/04/04 09:58:58;;;;;;;7.72;3.65;;;;;;;5.47;100.00;100169.56;4974284;28;20034;-81
2022/04/04 10:01:24;;;;;;;10.93;4.40;;;;;;;5.56;100.00;100156.06;4963141;28;20127;-82
2022/04/04 10:03:51;;;;;;;11.38;4.53;;;;;;;5.58;100.00;100152.19;4956734;28;20042;-81
2022/04/04 10:06:18;;;;;;;6.88;3.40;;;;;;;5.53;100.00;100159.13;4980104;28;20137;-82
2022/04/04 10:08:44;;;;;;;6.95;3.78;;;;;;;5.55;100.00;100157.09;4985607;28;20357;-80
2022/04/04 10:11:10;;;;;;;11.43;3.88;;;;;;;5.53;100.00;100148.44;4923546;28;20051;-80
2022/04/04 10:13:36;;;;;;;10.65;4.15;;;;;;;5.56;100.00;100134.69;4971998;28;20123;-81
2022/04/04 10:16:01;;;;;;;8.07;3.65;;;;;;;5.61;100.00;100133.06;4956317;28;20025;-81
2022/04/04 10:18:27;;;;;;;9.32;4.22;;;;;;;5.60;100.00;100138.59;4952861;28;20053;-81
2022/04/04 10:20:56;;;;;;;9.13;4.25;;;;;;;5.72;100.00;100139.69;4964226;28;20065;-81
2022/04/04 10:23:22;;;;;;;6.63;3.53;;;;;;;5.64;100.00;100121.16;4961086;28;20049;-81
2022/04/04 10:25:51;;;;;;;10.80;4.63;;;;;;;5.74;100.00;100127.78;4959514;28;20025;-83
2022/04/04 10:28:27;;;;;;;9.45;4.60;;;;;;;5.70;100.00;100121.19;4942048;28;24132;-79
2022/04/04 10:30:57;;;;;;;8.95;4.47;;;;;;;5.82;100.00;100105.41;4954416;28;20034;-80
2022/04/04 10:33:24;;;;;;;12.68;5.07;;;;;;;5.86;100.00;100122.72;4963443;28;20042;-79
2022/04/04 10:36:05;;;;;;;8.80;4.40;;;;;;;5.89;100.00;100119.63;4968656;28;20025;-78
2022/04/04 10:38:38;;;;;;;9.32;4.93;;;;;;;5.91;100.00;100085.50;4968618;28;21051;-78
2022/04/04 10:41:08;;;;;;;9.88;4.30;;;;;;;5.90;100.00;100129.31;4970191;28;20651;-81
2022/04/04 10:43:38;;;;;;;9.80;3.85;;;;;;;5.85;100.00;100096.16;4973011;28;20943;-79
2022/04/04 10:46:12;;;;;;;8.52;4.10;;;;;;;5.89;100.00;100084.88;4954757;28;20056;-80
2022/04/04 10:48:40;;;;;;;7.95;4.00;;;;;;;5.88;100.00;100098.44;4970341;28;20071;-80
2022/04/04 10:51:12;;;;;;;6.85;4.15;;;;;;;5.93;100.00;100088.00;4954023;28;20065;-80
2022/04/04 10:53:49;;;;;;;8.35;4.10;;;;;;;5.93;100.00;100075.47;4967263;28;20057;-81
2022/04/04 10:56:25;;;;;;;7.40;4.05;;;;;;;6.00;100.00;100061.28;4949452;28;20064;-81
2022/04/04 10:58:53;;;;;;;8.13;3.67;;;;;;;5.95;100.00;100075.25;4953980;28;20711;-79
2022/04/04 11:01:21;;;;;;;8.95;4.43;;;;;;;5.91;100.00;100072.13;4956009;28;20065;-81
2022/04/04 11:03:52;;;;;;;7.93;3.53;;;;;;;5.98;100.00;100075.69;4939239;28;20029;-79
2022/04/04 11:09:12;;;;;;;8.85;3.90;;;;;;;6.07;100.00;100072.81;4958000;28;20030;-78
2022/04/04 11:12:09;;;;;;;8.35;3.67;;;;;;;6.13;100.00;100062.13;4953784;28;20163;-78
2022/04/04 11:14:38;;;;;;;5.15;3.10;;;;;;;6.14;100.00;100029.03;4972075;28;20436;-81
2022/04/04 11:17:06;;;;;;;6.03;4.25;;;;;;;6.20;100.00;100067.50;4964441;28;20049;-79